Time;durP1;ratioP1;P1;durP2;ratioP2;P2;SDS_P1;SDS_P2;PMS_P1;PMS_P2;Temp;Humidity;BMP_temperature;BMP_pressure;BME280_temperature;BME280_humidity;BME280_pressure;Samples;Min_cycle;Max_cycle;Signal;HPM_P1;HPM_P2
2022/01/19 00:00:13;;;;;;;7.25;4.93;;;9.90;82.10;;;;;;5091980;28;20478;-66
2022/01/19 00:02:39;;;;;;;6.60;3.78;;;10.00;82.20;;;;;;5091793;28;20089;-65
2022/01/19 00:05:09;;;;;;;6.97;4.22;;;10.00;82.20;;;;;;5091524;28;20476;-66
2022/01/19 00:07:35;;;;;;;6.45;4.07;;;10.00;82.20;;;;;;5091974;28;20043;-66
2022/01/19 00:10:04;;;;;;;6.95;4.30;;;10.00;82.20;;;;;;5091685;28;20073;-66
2022/01/19 00:12:31;;;;;;;6.18;4.50;;;10.00;82.20;;;;;;5092233;28;20079;-66
2022/01/19 00:14:57;;;;;;;6.65;4.05;;;9.90;82.10;;;;;;5074029;28;20436;-65
2022/01/19 00:17:22;;;;;;;6.90;4.60;;;10.00;82.20;;;;;;5078103;28;20125;-66
2022/01/19 00:19:48;;;;;;;5.95;3.97;;;10.00;82.20;;;;;;5071702;28;20125;-65
2022/01/19 00:22:13;;;;;;;6.97;4.32;;;10.00;82.20;;;;;;5070795;28;20041;-66
2022/01/19 00:24:41;;;;;;;5.55;4.38;;;10.00;82.20;;;;;;5071327;28;20464;-66
2022/01/19 00:27:07;;;;;;;6.90;4.72;;;10.00;82.80;;;;;;5052321;28;20480;-66
2022/01/19 00:29:32;;;;;;;6.07;4.45;;;10.00;82.20;;;;;;5071231;28;20094;-66
2022/01/19 00:31:58;;;;;;;6.18;4.15;;;10.00;82.20;;;;;;5062657;28;20033;-64
2022/01/19 00:34:24;;;;;;;6.85;4.28;;;10.00;82.20;;;;;;5055551;28;20041;-65
2022/01/19 00:36:49;;;;;;;6.70;4.55;;;9.90;82.10;;;;;;5069457;28;20385;-65
2022/01/19 00:39:15;;;;;;;6.60;4.22;;;10.00;82.20;;;;;;5071117;28;20118;-66
2022/01/19 00:41:40;;;;;;;6.22;4.10;;;9.90;82.10;;;;;;5071163;28;20048;-67
2022/01/19 00:44:06;;;;;;;6.43;4.18;;;10.00;82.20;;;;;;5076894;28;20098;-66
2022/01/19 00:46:32;;;;;;;5.13;3.97;;;10.00;82.20;;;;;;5091777;28;20378;-64
2022/01/19 00:48:57;;;;;;;6.93;4.72;;;10.00;82.20;;;;;;5080841;28;20507;-65
2022/01/19 00:51:23;;;;;;;5.65;4.07;;;10.00;82.20;;;;;;5075458;28;20056;-65
2022/01/19 00:53:49;;;;;;;5.65;4.10;;;9.90;82.10;;;;;;5074756;28;20037;-65
2022/01/19 00:56:14;;;;;;;6.07;4.35;;;10.00;82.20;;;;;;5075643;28;20045;-66
2022/01/19 00:58:40;;;;;;;6.00;4.00;;;10.00;82.10;;;;;;5074811;28;20460;-62
2022/01/19 01:01:05;;;;;;;7.55;4.93;;;10.00;82.10;;;;;;5086760;28;20125;-65
2022/01/19 01:03:31;;;;;;;5.93;4.32;;;10.00;82.10;;;;;;5094857;28;20048;-62
2022/01/19 01:05:57;;;;;;;5.97;4.50;;;10.00;82.20;;;;;;5094987;28;20482;-65
2022/01/19 01:08:23;;;;;;;5.97;4.10;;;10.00;82.20;;;;;;5095306;28;20064;-65
2022/01/19 01:10:49;;;;;;;7.00;4.50;;;10.00;82.20;;;;;;5094942;28;20123;-65
2022/01/19 01:13:29;;;;;;;7.32;5.18;;;10.00;82.20;;;;;;5095516;28;20055;-65
2022/01/19 01:18:25;;;;;;;6.22;4.43;;;9.90;82.10;;;;;;5094548;28;20044;-66
2022/01/19 01:20:53;;;;;;;7.53;4.35;;;9.90;82.10;;;;;;5094725;28;20048;-66
2022/01/19 01:23:23;;;;;;;6.90;4.45;;;9.90;82.10;;;;;;5094581;28;20043;-65
2022/01/19 01:25:49;;;;;;;6.22;4.28;;;10.00;82.10;;;;;;5076450;28;20072;-66
2022/01/19 01:28:16;;;;;;;6.90;4.93;;;10.00;82.10;;;;;;5094857;28;20480;-60
2022/01/19 01:30:43;;;;;;;6.20;4.38;;;9.90;82.10;;;;;;5094926;28;20438;-64
2022/01/19 01:33:09;;;;;;;7.68;4.97;;;9.90;82.10;;;;;;5094861;28;20475;-61
2022/01/19 01:35:35;;;;;;;5.90;4.00;;;10.00;82.20;;;;;;5094777;28;20050;-59
2022/01/19 01:38:02;;;;;;;5.72;4.55;;;9.90;82.10;;;;;;5078858;28;20041;-60
2022/01/19 01:40:31;;;;;;;6.40;4.63;;;10.00;82.10;;;;;;5074602;28;20036;-62
2022/01/19 01:42:57;;;;;;;6.70;4.72;;;9.90;82.00;;;;;;5073589;28;20049;-62
2022/01/19 01:45:30;;;;;;;6.28;4.22;;;9.90;82.10;;;;;;5074264;28;20094;-61
2022/01/19 01:48:10;;;;;;;5.95;4.25;;;10.00;82.10;;;;;;5073605;28;20052;-65
2022/01/19 01:53:27;;;;;;;8.52;5.32;;;10.00;82.20;;;;;;5073849;28;20048;-63
2022/01/19 01:56:16;;;;;;;7.18;5.13;;;10.00;82.20;;;;;;5079715;28;20437;-65
2022/01/19 01:58:47;;;;;;;6.38;4.57;;;9.90;82.10;;;;;;5093834;28;20094;-64
2022/01/19 02:01:14;;;;;;;5.68;4.25;;;10.00;82.20;;;;;;5076677;28;20056;-66
2022/01/19 02:03:42;;;;;;;7.80;5.07;;;9.90;82.10;;;;;;5074069;28;20135;-65
2022/01/19 02:06:28;;;;;;;5.30;3.88;;;9.90;82.10;;;;;;5073619;28;20455;-65
2022/01/19 02:23:25;;;;;;;7.45;4.55;;;10.00;82.10;;;;;;5053355;28;20064;-64
2022/01/19 02:26:03;;;;;;;7.70;5.15;;;9.90;82.10;;;;;;5053267;28;20120;-64
2022/01/19 02:42:11;;;;;;;7.60;4.72;;;9.90;82.10;;;;;;5052753;28;20477;-64
2022/01/19 02:49:50;;;;;;;7.47;4.80;;;10.00;82.20;;;;;;5085070;28;20055;-63
2022/01/19 02:52:17;;;;;;;8.32;5.65;;;10.00;82.20;;;;;;5093040;28;20170;-65
2022/01/19 02:54:44;;;;;;;8.05;4.80;;;9.90;82.20;;;;;;5079408;28;20096;-66
2022/01/19 02:57:12;;;;;;;7.72;5.10;;;10.00;82.20;;;;;;5072128;28;20044;-65
2022/01/19 03:10:38;;;;;;;7.75;4.90;;;9.90;82.20;;;;;;5053654;28;20474;-59
2022/01/19 03:13:03;;;;;;;7.38;5.40;;;9.90;82.20;;;;;;5054788;28;20091;-60
2022/01/19 03:15:29;;;;;;;8.20;6.03;;;9.90;82.10;;;;;;5087563;28;20090;-61
2022/01/19 03:17:58;;;;;;;6.90;4.90;;;9.90;82.10;;;;;;5092796;28;20048;-58
2022/01/19 03:20:25;;;;;;;9.50;5.88;;;9.90;82.10;;;;;;5092558;28;20579;-65
2022/01/19 03:23:02;;;;;;;7.45;5.03;;;10.00;82.20;;;;;;5092016;28;20055;-63
2022/01/19 03:25:28;;;;;;;9.23;6.10;;;9.90;82.10;;;;;;5092153;28;20056;-63
2022/01/19 03:27:54;;;;;;;6.35;5.03;;;9.90;82.20;;;;;;5072991;28;20040;-58
2022/01/19 03:30:21;;;;;;;7.57;4.95;;;9.80;82.10;;;;;;5072508;28;20047;-63
2022/01/19 03:32:47;;;;;;;7.90;5.35;;;9.90;82.10;;;;;;5071668;28;20503;-64
2022/01/19 03:35:14;;;;;;;7.85;5.10;;;9.90;82.10;;;;;;5072294;28;20044;-66
2022/01/19 03:37:40;;;;;;;7.72;5.28;;;9.90;82.20;;;;;;5071414;28;20127;-66
2022/01/19 03:40:07;;;;;;;10.35;5.80;;;9.90;82.20;;;;;;5072245;28;20136;-67
2022/01/19 03:42:34;;;;;;;7.28;5.07;;;9.90;82.20;;;;;;5071338;28;20498;-66
2022/01/19 03:44:59;;;;;;;8.40;5.40;;;9.90;82.20;;;;;;5071894;28;20079;-66
2022/01/19 03:47:27;;;;;;;8.40;4.72;;;10.00;82.20;;;;;;5071917;28;20072;-64
2022/01/19 03:49:53;;;;;;;8.45;5.78;;;9.90;82.10;;;;;;5053835;28;20573;-66
2022/01/19 03:52:19;;;;;;;7.95;5.43;;;9.90;82.10;;;;;;5071617;28;20044;-66
2022/01/19 03:54:45;;;;;;;8.43;4.78;;;10.00;82.20;;;;;;5071398;28;20601;-62
2022/01/19 03:57:12;;;;;;;9.57;5.32;;;9.90;82.20;;;;;;5071856;28;20098;-65
2022/01/19 03:59:39;;;;;;;9.63;6.20;;;9.90;82.20;;;;;;5053462;28;20481;-66
2022/01/19 04:02:06;;;;;;;6.85;4.72;;;10.00;82.20;;;;;;5072012;28;20072;-64
2022/01/19 04:04:38;;;;;;;7.38;5.57;;;9.90;82.10;;;;;;5073552;28;20133;-66
2022/01/19 04:09:34;;;;;;;10.00;5.88;;;10.00;82.20;;;;;;5088037;28;20067;-66
2022/01/19 04:12:00;;;;;;;8.82;5.32;;;9.90;82.20;;;;;;5071445;28;20123;-66
2022/01/19 04:14:26;;;;;;;7.00;5.10;;;10.00;82.20;;;;;;5071350;28;20190;-64
2022/01/19 04:16:58;;;;;;;8.48;5.57;;;10.00;82.20;;;;;;5071305;28;20044;-64
2022/01/19 04:19:30;;;;;;;9.30;5.03;;;10.00;82.20;;;;;;5071105;28;20378;-65
2022/01/19 04:21:57;;;;;;;9.60;4.95;;;9.90;82.20;;;;;;5073994;28;20127;-65
2022/01/19 04:24:24;;;;;;;8.45;5.25;;;9.90;82.10;;;;;;5091060;28;20079;-65
2022/01/19 04:29:36;;;;;;;8.77;5.47;;;9.90;82.20;;;;;;5071046;28;20090;-64
2022/01/19 04:32:09;;;;;;;7.47;4.88;;;10.00;82.20;;;;;;5071882;28;20051;-65
2022/01/19 04:34:37;;;;;;;7.53;5.22;;;10.00;82.20;;;;;;5071024;28;20094;-64
2022/01/19 04:37:27;;;;;;;8.35;5.15;;;10.00;82.20;;;;;;5071522;28;20056;-65
2022/01/19 05:04:08;;;;;;;7.13;5.30;;;10.00;82.20;;;;;;5091461;28;20149;-62
2022/01/19 05:06:39;;;;;;;9.13;5.20;;;9.90;82.20;;;;;;5091140;28;20044;-64
2022/01/19 05:09:23;;;;;;;8.10;5.45;;;9.90;82.20;;;;;;5090907;28;20500;-65
2022/01/19 05:14:33;;;;;;;7.60;4.57;;;9.90;82.20;;;;;;5089159;28;20036;-66
2022/01/19 05:16:58;;;;;;;6.95;4.75;;;9.90;82.20;;;;;;5071164;28;20047;-65
2022/01/19 05:19:24;;;;;;;7.40;4.88;;;9.90;82.20;;;;;;5070874;28;20040;-65
2022/01/19 05:21:50;;;;;;;7.93;5.47;;;9.90;82.20;;;;;;5070864;28;20083;-64
2022/01/19 05:24:15;;;;;;;9.82;5.00;;;9.90;82.20;;;;;;5069954;28;20086;-64
2022/01/19 05:26:41;;;;;;;8.60;5.53;;;9.90;82.20;;;;;;5081027;28;20036;-66
2022/01/19 05:29:07;;;;;;;7.13;4.55;;;10.00;82.30;;;;;;5090995;28;20093;-65
2022/01/19 05:31:33;;;;;;;7.82;5.18;;;10.00;82.20;;;;;;5073653;28;20044;-65
2022/01/19 05:33:58;;;;;;;8.32;5.28;;;9.90;82.20;;;;;;5070986;28;20039;-65
2022/01/19 05:36:24;;;;;;;8.18;5.18;;;10.00;82.20;;;;;;5074062;28;20102;-64
2022/01/19 05:38:50;;;;;;;7.20;4.93;;;9.90;82.20;;;;;;5056643;28;20124;-65
2022/01/19 05:41:15;;;;;;;9.77;5.97;;;9.90;82.20;;;;;;5074291;28;20477;-65
2022/01/19 05:43:41;;;;;;;8.23;5.47;;;9.90;82.20;;;;;;5090534;28;20040;-65
2022/01/19 05:46:07;;;;;;;8.40;4.88;;;10.00;82.20;;;;;;5094403;28;20044;-63
2022/01/19 05:48:32;;;;;;;8.85;5.85;;;10.00;82.20;;;;;;5084543;28;20033;-63
2022/01/19 05:50:58;;;;;;;8.02;4.90;;;9.90;82.20;;;;;;5052186;28;20045;-63
2022/01/19 05:53:23;;;;;;;6.35;4.97;;;9.90;82.20;;;;;;5052492;28;20052;-63
2022/01/19 05:55:49;;;;;;;6.75;4.60;;;10.00;82.20;;;;;;5053623;28;20041;-66
2022/01/19 05:58:15;;;;;;;7.97;5.93;;;9.90;82.10;;;;;;5053532;28;20517;-63
2022/01/19 06:00:41;;;;;;;7.20;4.90;;;10.00;82.20;;;;;;5054359;28;20087;-60
2022/01/19 06:03:06;;;;;;;7.28;4.88;;;10.00;82.20;;;;;;5053503;28;20435;-62
2022/01/19 06:05:33;;;;;;;7.70;5.50;;;10.00;82.20;;;;;;5053843;28;20041;-63
2022/01/19 06:10:57;;;;;;;7.32;5.20;;;9.90;82.20;;;;;;5010923;28;20046;-60
2022/01/19 06:13:24;;;;;;;7.88;5.47;;;9.90;82.10;;;;;;5011763;28;20046;-61
2022/01/19 06:15:50;;;;;;;7.47;5.28;;;9.90;82.10;;;;;;5011512;28;20054;-64
2022/01/19 06:18:17;;;;;;;7.20;5.25;;;9.90;82.10;;;;;;5011602;28;20633;-64
2022/01/19 06:20:44;;;;;;;8.38;5.68;;;9.90;82.20;;;;;;5011657;28;20771;-64
2022/01/19 06:23:11;;;;;;;7.63;5.22;;;10.00;82.20;;;;;;5011145;28;20046;-63
2022/01/19 06:25:36;;;;;;;7.10;5.38;;;9.90;82.10;;;;;;5010477;28;20491;-63
2022/01/19 06:28:02;;;;;;;7.57;4.75;;;9.90;82.10;;;;;;5010763;28;20053;-63
2022/01/19 06:30:29;;;;;;;9.25;5.80;;;9.90;82.10;;;;;;5011270;28;20057;-62
2022/01/19 06:32:54;;;;;;;8.38;5.85;;;9.90;82.10;;;;;;5011061;28;20049;-62
2022/01/19 06:35:21;;;;;;;9.32;5.13;;;10.00;82.20;;;;;;5011299;28;20054;-64
2022/01/19 06:37:46;;;;;;;7.03;5.20;;;10.00;82.20;;;;;;5010835;28;20096;-64
2022/01/19 06:40:14;;;;;;;7.35;4.85;;;9.90;82.10;;;;;;5010319;28;20057;-65
2022/01/19 06:42:41;;;;;;;7.50;5.28;;;10.00;82.20;;;;;;5011031;28;20790;-63
2022/01/19 06:45:08;;;;;;;7.57;5.82;;;10.00;82.20;;;;;;5010868;28;20049;-64
2022/01/19 06:47:34;;;;;;;7.75;5.25;;;9.90;82.10;;;;;;5031282;28;20052;-66
2022/01/19 06:50:00;;;;;;;7.32;5.40;;;9.90;82.10;;;;;;5052849;28;20048;-63
2022/01/19 06:52:26;;;;;;;8.30;5.88;;;9.90;82.10;;;;;;5053377;28;20924;-63
2022/01/19 06:54:52;;;;;;;9.10;5.82;;;10.00;82.20;;;;;;5052335;28;20175;-63
2022/01/19 06:57:17;;;;;;;7.28;4.93;;;9.90;82.10;;;;;;5082379;28;20131;-64
2022/01/19 06:59:43;;;;;;;7.97;5.40;;;10.00;82.10;;;;;;5092978;28;20480;-65
2022/01/19 07:02:09;;;;;;;7.32;5.45;;;9.90;82.10;;;;;;5092893;28;20047;-65
2022/01/19 07:04:36;;;;;;;7.20;5.07;;;9.90;82.10;;;;;;5093023;28;20040;-64
2022/01/19 07:07:02;;;;;;;8.88;5.70;;;10.00;82.10;;;;;;5091340;28;20036;-63
2022/01/19 07:09:29;;;;;;;6.72;4.90;;;10.00;82.20;;;;;;5071820;28;20480;-63
2022/01/19 07:11:55;;;;;;;8.13;5.63;;;9.90;82.10;;;;;;5071412;28;20378;-63
2022/01/19 07:14:21;;;;;;;7.60;5.20;;;9.90;82.10;;;;;;5072699;28;20037;-66
2022/01/19 07:16:47;;;;;;;8.50;5.55;;;10.00;82.20;;;;;;5072357;28;20502;-66
2022/01/19 07:19:13;;;;;;;6.97;4.82;;;9.90;82.10;;;;;;5072069;28;20044;-66
2022/01/19 07:21:39;;;;;;;7.72;5.60;;;10.00;82.20;;;;;;5060964;28;20073;-65
2022/01/19 07:24:05;;;;;;;7.35;5.15;;;9.90;82.10;;;;;;5071394;28;20063;-60
2022/01/19 07:26:31;;;;;;;6.88;5.32;;;9.90;82.10;;;;;;5071657;28;20040;-66
2022/01/19 07:28:56;;;;;;;8.68;5.82;;;9.90;82.10;;;;;;5071462;28;20590;-64
2022/01/19 07:31:22;;;;;;;8.27;5.47;;;9.90;82.10;;;;;;5071884;28;20087;-63
2022/01/19 07:33:48;;;;;;;8.10;5.32;;;9.90;82.10;;;;;;5064420;28;20431;-65
2022/01/19 07:36:15;;;;;;;10.10;5.55;;;9.90;82.10;;;;;;5052356;28;20076;-64
2022/01/19 07:38:41;;;;;;;6.80;5.07;;;9.90;82.10;;;;;;5063630;28;20044;-63
2022/01/19 07:41:07;;;;;;;7.68;5.10;;;10.00;82.20;;;;;;5070965;28;20048;-64
2022/01/19 07:43:32;;;;;;;7.85;5.43;;;9.90;82.10;;;;;;5071604;28;20044;-66
2022/01/19 07:45:58;;;;;;;7.35;5.18;;;9.90;82.00;;;;;;5070828;28;20055;-66
2022/01/19 07:48:24;;;;;;;8.93;5.85;;;9.90;82.10;;;;;;5091606;28;20036;-64
2022/01/19 07:50:50;;;;;;;8.60;5.47;;;9.90;82.00;;;;;;5084280;28;20040;-57
2022/01/19 07:53:15;;;;;;;7.32;5.15;;;9.90;82.00;;;;;;5053637;28;20053;-66
2022/01/19 07:55:42;;;;;;;7.35;5.68;;;9.90;82.00;;;;;;5072104;28;20044;-65
2022/01/19 07:58:09;;;;;;;7.07;5.38;;;10.00;82.10;;;;;;5070120;28;20060;-67
2022/01/19 08:00:38;;;;;;;8.27;6.00;;;10.00;82.10;;;;;;5072261;28;20052;-68
2022/01/19 08:03:04;;;;;;;11.55;7.70;;;10.00;82.10;;;;;;5078604;28;20048;-60
2022/01/19 08:05:30;;;;;;;24.02;15.70;;;9.90;82.00;;;;;;5074131;28;20046;-62
2022/01/19 08:07:56;;;;;;;22.27;15.70;;;9.80;80.60;;;;;;5091547;28;20417;-63
2022/01/19 08:10:21;;;;;;;22.95;15.05;;;9.60;80.90;;;;;;5092240;28;20097;-65
2022/01/19 08:12:50;;;;;;;26.33;15.30;;;9.60;81.10;;;;;;5091460;28;20043;-63
2022/01/19 08:15:16;;;;;;;24.88;15.45;;;9.60;81.20;;;;;;5091804;28;20517;-63
2022/01/19 08:17:42;;;;;;;25.38;16.45;;;9.70;81.30;;;;;;5091854;28;20040;-63
2022/01/19 08:20:08;;;;;;;23.63;15.50;;;9.60;81.30;;;;;;5073541;28;20054;-63
2022/01/19 08:22:33;;;;;;;23.92;15.32;;;9.70;81.40;;;;;;5091730;28;20048;-62
2022/01/19 08:24:59;;;;;;;20.85;14.80;;;9.60;81.30;;;;;;5091387;28;20115;-62
2022/01/19 08:27:25;;;;;;;23.90;15.90;;;9.70;81.40;;;;;;5076930;28;20049;-61
2022/01/19 08:29:50;;;;;;;21.33;14.85;;;9.70;81.40;;;;;;5056706;28;20458;-60
2022/01/19 08:32:16;;;;;;;23.85;14.65;;;9.70;81.50;;;;;;5051253;28;20395;-62
2022/01/19 08:34:42;;;;;;;22.67;14.80;;;9.70;81.40;;;;;;5051686;28;20040;-61
2022/01/19 08:37:10;;;;;;;21.50;15.25;;;9.70;81.40;;;;;;5051509;28;20045;-61
2022/01/19 08:39:39;;;;;;;25.25;15.23;;;9.80;81.50;;;;;;5066192;28;20496;-62
2022/01/19 08:42:05;;;;;;;23.45;14.95;;;9.80;81.50;;;;;;5091016;28;20499;-62
2022/01/19 08:44:33;;;;;;;23.88;15.10;;;9.80;81.50;;;;;;5073507;28;20044;-61
2022/01/19 08:46:59;;;;;;;22.95;15.90;;;9.80;81.50;;;;;;5070657;28;20102;-61
2022/01/19 08:49:24;;;;;;;21.25;14.75;;;9.80;81.50;;;;;;5053264;28;20477;-60
2022/01/19 08:51:50;;;;;;;21.80;14.98;;;9.80;81.50;;;;;;5070544;28;20055;-62
2022/01/19 08:54:16;;;;;;;23.98;15.52;;;9.80;81.50;;;;;;5070707;28;20048;-62
2022/01/19 08:56:41;;;;;;;21.45;15.02;;;9.80;81.50;;;;;;5070700;28;20032;-61
2022/01/19 08:59:07;;;;;;;23.40;16.00;;;9.80;81.60;;;;;;5051978;28;20052;-64
2022/01/19 09:01:32;;;;;;;22.52;14.60;;;9.80;81.50;;;;;;5070671;28;20048;-63
2022/01/19 09:03:58;;;;;;;22.73;15.18;;;9.80;81.50;;;;;;5070135;28;20048;-62
2022/01/19 09:06:25;;;;;;;20.25;14.77;;;9.80;81.60;;;;;;5076154;28;20186;-63
2022/01/19 09:08:51;;;;;;;20.05;15.02;;;9.90;81.60;;;;;;5090932;28;20083;-61
2022/01/19 09:11:16;;;;;;;21.40;14.60;;;9.90;81.70;;;;;;5083100;28;20080;-63
2022/01/19 09:13:44;;;;;;;21.83;15.13;;;9.90;81.60;;;;;;5074706;28;20098;-61
2022/01/19 09:16:10;;;;;;;25.17;15.60;;;9.80;81.60;;;;;;5074942;28;20128;-62
2022/01/19 09:18:35;;;;;;;23.00;15.15;;;9.90;81.60;;;;;;5074709;28;20131;-63
2022/01/19 09:21:01;;;;;;;22.13;15.32;;;9.90;81.60;;;;;;5074457;28;20045;-65
2022/01/19 09:23:27;;;;;;;21.42;14.63;;;9.80;81.60;;;;;;5086589;28;20102;-65
2022/01/19 09:25:52;;;;;;;21.98;15.43;;;9.90;81.70;;;;;;5094660;28;20094;-64
2022/01/19 09:28:18;;;;;;;22.10;14.55;;;9.80;81.60;;;;;;5094343;28;20040;-62
2022/01/19 09:30:45;;;;;;;21.55;14.88;;;9.90;81.70;;;;;;5094652;28;20186;-62
2022/01/19 09:33:19;;;;;;;22.20;15.57;;;9.90;81.60;;;;;;5076689;28;20377;-63
2022/01/19 09:38:32;;;;;;;22.58;14.38;;;9.90;81.60;;;;;;5094885;28;20139;-63
2022/01/19 09:40:58;;;;;;;19.55;13.90;;;9.80;81.70;;;;;;5094255;28;20553;-63
2022/01/19 09:43:25;;;;;;;18.98;14.27;;;9.90;81.70;;;;;;5094567;28;20089;-62
2022/01/19 09:45:58;;;;;;;23.40;14.60;;;9.90;81.70;;;;;;5094539;28;20075;-63
2022/01/19 09:48:25;;;;;;;19.88;14.23;;;9.90;81.70;;;;;;5094226;28;20048;-63
2022/01/19 09:50:51;;;;;;;19.58;13.80;;;9.80;82.30;;;;;;5094195;28;20106;-63
2022/01/19 09:53:17;;;;;;;20.92;14.60;;;9.80;81.60;;;;;;5094399;28;20043;-63
2022/01/19 09:55:45;;;;;;;20.15;14.07;;;9.80;81.60;;;;;;5068323;28;20040;-61
2022/01/19 09:58:11;;;;;;;22.13;14.65;;;9.90;81.70;;;;;;5062832;28;20049;-62
2022/01/19 10:00:37;;;;;;;22.08;14.93;;;9.80;81.60;;;;;;5091221;28;20477;-63
2022/01/19 10:03:17;;;;;;;20.08;14.35;;;9.90;81.70;;;;;;5092867;28;20044;-60
2022/01/19 10:06:12;;;;;;;20.27;14.30;;;9.90;81.70;;;;;;5077981;28;20045;-60
2022/01/19 10:08:50;;;;;;;21.48;13.68;;;9.90;81.70;;;;;;5073546;28;20098;-62
2022/01/19 10:11:25;;;;;;;21.52;14.80;;;9.80;81.70;;;;;;5070021;28;20121;-64
2022/01/19 10:17:00;;;;;;;19.90;14.52;;;9.90;81.70;;;;;;5072852;28;20044;-64
2022/01/19 10:19:48;;;;;;;18.45;13.52;;;9.90;81.70;;;;;;5072640;28;20063;-62
2022/01/19 10:22:17;;;;;;;19.58;13.70;;;9.80;81.60;;;;;;5072967;28;20056;-64
2022/01/19 10:24:50;;;;;;;17.60;13.32;;;9.90;81.70;;;;;;5073231;28;20446;-64
2022/01/19 10:27:20;;;;;;;17.95;13.15;;;9.90;81.70;;;;;;5071963;28;20170;-64
2022/01/19 10:29:48;;;;;;;18.23;13.35;;;9.90;81.70;;;;;;5070766;28;20087;-61
2022/01/19 10:32:14;;;;;;;22.00;14.57;;;9.90;81.70;;;;;;5080443;28;20093;-60
2022/01/19 10:34:40;;;;;;;18.33;13.75;;;10.00;81.80;;;;;;5093090;28;20043;-65
2022/01/19 10:37:06;;;;;;;18.20;13.18;;;9.90;81.80;;;;;;5079134;28;20040;-64
2022/01/19 10:39:48;;;;;;;21.73;15.00;;;9.90;81.80;;;;;;5073051;28;20121;-62
2022/01/19 10:42:17;;;;;;;20.05;14.45;;;9.90;81.70;;;;;;5072612;28;20064;-58
2022/01/19 10:44:46;;;;;;;19.23;12.88;;;9.90;81.80;;;;;;5038882;28;20052;-62
2022/01/19 10:47:11;;;;;;;18.65;12.98;;;9.90;81.80;;;;;;5073490;28;20036;-62
2022/01/19 10:49:52;;;;;;;18.48;13.23;;;9.90;81.80;;;;;;5089048;28;20468;-62
2022/01/19 10:52:47;;;;;;;19.98;13.63;;;9.90;81.80;;;;;;5093186;28;20082;-59
2022/01/19 10:55:31;;;;;;;20.67;14.27;;;9.90;81.70;;;;;;4990793;28;20473;-61
2022/01/19 10:57:59;;;;;;;17.85;12.80;;;9.90;81.80;;;;;;4974965;28;20057;-61
2022/01/19 11:00:33;;;;;;;19.05;13.88;;;9.90;82.10;;;;;;4990824;28;20560;-58
2022/01/19 11:03:18;;;;;;;19.90;13.05;;;9.90;81.80;;;;;;4989666;28;20057;-59
2022/01/19 11:05:51;;;;;;;16.92;13.25;;;9.90;81.80;;;;;;4990769;28;20565;-59
2022/01/19 11:08:20;;;;;;;18.35;12.48;;;9.90;81.80;;;;;;4991054;28;20054;-57
2022/01/19 11:10:51;;;;;;;17.27;12.70;;;9.90;81.80;;;;;;4989196;28;20060;-59
2022/01/19 11:13:28;;;;;;;18.88;12.65;;;9.90;81.80;;;;;;4991155;28;20124;-58
2022/01/19 11:15:55;;;;;;;18.60;13.82;;;9.90;81.80;;;;;;4989644;28;20038;-59
2022/01/19 11:18:25;;;;;;;17.63;12.70;;;9.90;81.80;;;;;;4969000;28;20130;-58
2022/01/19 11:20:51;;;;;;;18.45;13.75;;;9.80;81.80;;;;;;4971188;28;20532;-57
2022/01/19 11:23:31;;;;;;;17.40;13.18;;;9.90;81.80;;;;;;4971667;28;20046;-59
2022/01/19 11:26:00;;;;;;;19.27;12.95;;;9.90;81.80;;;;;;4973440;28;20054;-58
2022/01/19 11:28:28;;;;;;;17.77;12.18;;;9.90;81.80;;;;;;4968608;28;20051;-58
2022/01/19 11:30:54;;;;;;;18.48;12.93;;;9.90;81.80;;;;;;4987555;28;20130;-57
2022/01/19 11:33:25;;;;;;;19.67;13.75;;;9.90;81.80;;;;;;5069894;28;20481;-57
2022/01/19 11:36:17;;;;;;;19.92;13.05;;;9.90;81.80;;;;;;5071065;28;20090;-57
2022/01/19 11:38:51;;;;;;;17.77;12.48;;;9.90;81.80;;;;;;5050373;28;20041;-58
2022/01/19 11:41:17;;;;;;;16.98;11.20;;;9.90;81.80;;;;;;5075161;28;20476;-57
2022/01/19 11:43:52;;;;;;;18.45;13.27;;;9.90;81.80;;;;;;5062408;28;20113;-58
2022/01/19 11:46:34;;;;;;;;;;;9.90;81.80;;;;;;5069738;28;20052;-57
2022/01/19 11:49:02;;;;;;;19.05;13.40;;;9.80;81.70;;;;;;5066859;28;19924;-57
2022/01/19 11:51:32;;;;;;;18.52;12.68;;;9.90;81.90;;;;;;5070785;28;20063;-57
2022/01/19 11:54:06;;;;;;;18.65;12.32;;;9.90;81.90;;;;;;5051761;28;20068;-57
2022/01/19 11:56:53;;;;;;;16.98;12.18;;;9.90;81.80;;;;;;5070387;28;20055;-57
2022/01/19 11:59:18;;;;;;;18.83;12.50;;;9.90;82.50;;;;;;5035445;28;20051;-58
2022/01/19 12:01:44;;;;;;;17.17;12.73;;;9.90;81.90;;;;;;5054868;28;20044;-58
2022/01/19 12:04:22;;;;;;;19.23;12.77;;;9.90;81.80;;;;;;5064322;28;20125;-57
2022/01/19 12:06:49;;;;;;;18.27;12.68;;;9.90;81.80;;;;;;5070295;28;20051;-58
2022/01/19 12:09:16;;;;;;;15.88;11.65;;;9.90;81.80;;;;;;5070312;28;20042;-58
2022/01/19 12:11:52;;;;;;;18.33;12.70;;;9.90;81.80;;;;;;5066564;28;20055;-57
2022/01/19 12:14:28;;;;;;;17.35;12.38;;;9.90;81.80;;;;;;5068433;28;20069;-58
2022/01/19 12:17:04;;;;;;;16.10;11.77;;;9.90;81.90;;;;;;5067239;28;20037;-57
2022/01/19 12:19:38;;;;;;;16.48;11.95;;;9.90;81.80;;;;;;5068545;28;20491;-57
2022/01/19 12:22:11;;;;;;;17.52;12.10;;;9.90;81.80;;;;;;5068417;28;20382;-58
2022/01/19 12:24:47;;;;;;;18.15;11.70;;;9.90;81.80;;;;;;5068464;28;20040;-57
2022/01/19 12:27:15;;;;;;;15.48;11.88;;;9.80;81.80;;;;;;5065041;28;20123;-58
2022/01/19 12:30:03;;;;;;;16.13;11.68;;;9.90;81.80;;;;;;5067335;28;20045;-57
2022/01/19 12:32:32;;;;;;;17.30;13.10;;;9.90;81.80;;;;;;5066478;28;20086;-58
2022/01/19 12:35:20;;;;;;;16.13;11.70;;;9.90;81.80;;;;;;5065135;28;20040;-58
2022/01/19 12:37:55;;;;;;;18.17;12.32;;;9.90;81.80;;;;;;5049791;28;20090;-58
2022/01/19 12:40:35;;;;;;;17.50;12.82;;;9.90;81.80;;;;;;5049837;28;20087;-58
2022/01/19 12:43:04;;;;;;;16.08;11.55;;;9.90;81.80;;;;;;5068756;28;20049;-57
2022/01/19 12:45:44;;;;;;;15.18;11.77;;;9.90;81.80;;;;;;5072777;28;20483;-57
2022/01/19 12:48:12;;;;;;;16.83;12.50;;;9.90;81.80;;;;;;5071763;28;20511;-58
2022/01/19 12:50:42;;;;;;;16.20;11.82;;;9.90;81.80;;;;;;5073698;28;20052;-58
2022/01/19 12:53:17;;;;;;;15.95;12.07;;;10.00;81.90;;;;;;5073285;28;20040;-59
2022/01/19 12:55:46;;;;;;;;;;;9.90;81.80;;;;;;5074692;28;20044;-58
2022/01/19 12:58:26;;;;;;;17.13;11.88;;;9.90;81.80;;;;;;5073700;28;19928;-59
2022/01/19 13:00:56;;;;;;;17.45;11.93;;;9.90;81.90;;;;;;5068961;28;20040;-57
2022/01/19 13:03:29;;;;;;;14.70;11.25;;;9.80;81.80;;;;;;5071184;28;20072;-57
2022/01/19 13:06:02;;;;;;;14.23;10.50;;;9.90;81.90;;;;;;5065979;28;20071;-60
2022/01/19 13:08:32;;;;;;;17.85;12.07;;;9.90;81.90;;;;;;5073904;28;20818;-59
2022/01/19 13:11:06;;;;;;;15.15;11.13;;;9.90;81.90;;;;;;5071710;28;20044;-59
2022/01/19 13:13:50;;;;;;;19.10;11.70;;;9.90;81.90;;;;;;5054202;28;20493;-59
2022/01/19 13:16:35;;;;;;;13.45;10.70;;;9.90;81.80;;;;;;5068135;28;20045;-57
2022/01/19 13:19:09;;;;;;;15.73;11.00;;;9.90;81.90;;;;;;5072208;28;20119;-58
2022/01/19 13:21:36;;;;;;;16.23;11.93;;;9.90;81.90;;;;;;5055276;28;20043;-58
2022/01/19 13:24:09;;;;;;;14.02;10.60;;;9.90;81.90;;;;;;5073248;28;20443;-63
2022/01/19 13:26:48;;;;;;;15.40;11.32;;;9.90;81.90;;;;;;5070024;28;20198;-64
2022/01/19 13:29:34;;;;;;;14.63;10.60;;;9.90;81.80;;;;;;5073214;28;20040;-64
2022/01/19 13:32:04;;;;;;;14.73;10.43;;;9.90;81.80;;;;;;5070598;28;20051;-62
2022/01/19 13:34:52;;;;;;;15.70;11.25;;;9.90;81.80;;;;;;5054095;28;20085;-63
2022/01/19 13:37:18;;;;;;;15.40;10.88;;;9.90;81.90;;;;;;5071103;28;20111;-64
2022/01/19 13:39:44;;;;;;;14.82;11.15;;;9.90;81.90;;;;;;5071325;28;20465;-63
2022/01/19 13:42:10;;;;;;;15.52;11.35;;;9.90;81.90;;;;;;5080971;28;20151;-59
2022/01/19 13:44:48;;;;;;;15.05;10.70;;;9.90;81.80;;;;;;5079420;28;20104;-58
2022/01/19 13:47:25;;;;;;;16.33;11.55;;;9.90;81.90;;;;;;5061864;28;20125;-57
2022/01/19 13:49:53;;;;;;;13.57;10.77;;;9.90;81.80;;;;;;5064412;28;20067;-57
2022/01/19 13:52:24;;;;;;;16.42;10.68;;;9.90;81.90;;;;;;5079362;28;20040;-57
2022/01/19 13:54:50;;;;;;;14.13;10.27;;;9.90;81.80;;;;;;5079130;28;20403;-57
2022/01/19 13:57:28;;;;;;;15.10;10.70;;;9.90;81.90;;;;;;5080446;28;20101;-57
2022/01/19 14:00:06;;;;;;;14.35;10.82;;;9.90;81.80;;;;;;5081151;28;20123;-58
2022/01/19 14:02:32;;;;;;;13.90;10.10;;;9.90;81.80;;;;;;5079723;28;20044;-57
2022/01/19 14:05:00;;;;;;;13.40;10.35;;;9.90;81.80;;;;;;5080432;28;20036;-57
2022/01/19 14:07:25;;;;;;;14.27;9.85;;;9.90;81.90;;;;;;5079552;28;20087;-57
2022/01/19 14:09:51;;;;;;;14.52;9.82;;;9.90;81.90;;;;;;5079407;28;20087;-58
2022/01/19 14:12:19;;;;;;;13.73;10.23;;;10.00;81.90;;;;;;5078420;28;21725;-58
2022/01/19 14:14:47;;;;;;;15.13;10.55;;;9.90;81.80;;;;;;5079913;28;20071;-58
2022/01/19 14:17:27;;;;;;;16.80;11.00;;;9.90;81.90;;;;;;5079372;28;20042;-58
2022/01/19 14:19:54;;;;;;;14.52;9.93;;;10.00;81.90;;;;;;5079151;28;20543;-57
2022/01/19 14:22:19;;;;;;;31.88;16.85;;;10.00;81.90;;;;;;5078363;28;20051;-59
2022/01/19 14:24:57;;;;;;;23.13;14.43;;;9.80;81.20;;;;;;5076947;28;20139;-59